createdAt,value
2022-08-17T00:00:43.756Z,20.68
2022-08-17T00:03:22.538Z,20.66
2022-08-17T00:05:53.633Z,20.71
2022-08-17T00:08:28.248Z,20.65
2022-08-17T00:10:58.395Z,20.62
2022-08-17T00:13:37.750Z,20.60
2022-08-17T00:16:08.811Z,20.47
2022-08-17T00:19:06.830Z,20.38
2022-08-17T00:22:01.373Z,20.35
2022-08-17T00:24:23.055Z,20.27
2022-08-17T00:26:52.389Z,20.29
2022-08-17T00:29:20.326Z,20.46
2022-08-17T00:31:52.816Z,20.50
2022-08-17T00:34:20.750Z,20.46
2022-08-17T00:36:48.636Z,20.40
2022-08-17T00:39:18.356Z,20.30
2022-08-17T00:41:48.290Z,20.27
2022-08-17T00:44:17.597Z,20.22
2022-08-17T00:46:49.679Z,20.20
2022-08-17T00:49:25.727Z,20.19
2022-08-17T00:51:57.799Z,20.15
2022-08-17T00:54:34.223Z,20.19
2022-08-17T00:57:12.579Z,20.14
2022-08-17T01:00:01.627Z,20.10
2022-08-17T01:02:40.518Z,20.03
2022-08-17T01:05:19.812Z,20.04
2022-08-17T01:07:50.735Z,19.91
2022-08-17T01:10:59.223Z,19.98
2022-08-17T01:13:14.448Z,20.09
2022-08-17T01:15:53.820Z,20.13
2022-08-17T01:18:21.930Z,20.12
2022-08-17T01:20:54.518Z,20.28
2022-08-17T01:23:26.632Z,20.42
2022-08-17T01:25:58.616Z,20.35
2022-08-17T01:28:52.601Z,20.27
2022-08-17T01:31:21.199Z,20.21
2022-08-17T01:33:51.018Z,20.14
2022-08-17T01:36:21.095Z,20.18
2022-08-17T01:38:50.387Z,20.21
2022-08-17T01:41:20.429Z,20.22
2022-08-17T01:43:53.484Z,20.13
2022-08-17T01:46:28.916Z,20.13
2022-08-17T01:48:59.845Z,20.20
2022-08-17T01:51:34.400Z,20.22
2022-08-17T01:54:08.687Z,20.27
2022-08-17T01:56:42.884Z,20.20
2022-08-17T01:59:13.987Z,20.25
2022-08-17T02:01:45.768Z,20.18
2022-08-17T02:04:16.194Z,20.25
2022-08-17T02:06:52.753Z,20.27
2022-08-17T02:09:26.283Z,20.29
2022-08-17T02:12:00.082Z,20.25
2022-08-17T02:14:49.791Z,20.19
2022-08-17T02:17:19.705Z,20.18
2022-08-17T02:19:47.572Z,20.13
2022-08-17T02:22:20.126Z,20.15
2022-08-17T02:24:58.445Z,20.15
2022-08-17T02:27:31.588Z,20.15
2022-08-17T02:30:01.655Z,20.13
2022-08-17T02:32:29.508Z,20.20
2022-08-17T02:34:59.879Z,20.17
2022-08-17T02:37:30.800Z,20.09
2022-08-17T02:40:00.703Z,20.06
2022-08-17T02:42:33.307Z,20.09
2022-08-17T02:45:03.932Z,20.04
2022-08-17T02:47:31.835Z,19.96
2022-08-17T02:50:01.591Z,19.87
2022-08-17T02:52:43.162Z,19.72
2022-08-17T02:55:18.868Z,19.52
2022-08-17T02:57:49.678Z,19.38
2022-08-17T03:00:23.114Z,19.35
2022-08-17T03:02:53.411Z,19.43
2022-08-17T03:05:23.246Z,19.55
2022-08-17T03:07:55.460Z,19.60
2022-08-17T03:10:25.765Z,19.63
2022-08-17T03:12:53.889Z,19.62
2022-08-17T03:15:27.982Z,19.69
2022-08-17T03:17:56.772Z,19.66
2022-08-17T03:20:27.965Z,19.67
2022-08-17T03:23:02.750Z,19.62
2022-08-17T03:25:34.695Z,19.59
2022-08-17T03:28:07.192Z,19.56
2022-08-17T03:30:35.684Z,19.65
2022-08-17T03:33:06.030Z,19.69
2022-08-17T03:35:38.327Z,19.54
2022-08-17T03:38:10.172Z,19.39
2022-08-17T03:40:56.513Z,19.42
2022-08-17T03:43:32.325Z,19.56
2022-08-17T03:46:34.315Z,19.69
2022-08-17T03:49:24.852Z,19.79
2022-08-17T03:52:12.725Z,19.99
2022-08-17T03:55:01.056Z,20.11
2022-08-17T03:57:32.429Z,20.17
2022-08-17T04:00:02.374Z,20.32
2022-08-17T04:02:34.890Z,20.29
2022-08-17T04:05:02.846Z,20.29
2022-08-17T04:07:33.055Z,20.43
2022-08-17T04:10:03.193Z,20.44
2022-08-17T04:12:45.142Z,20.46
2022-08-17T04:15:17.804Z,20.55
2022-08-17T04:17:46.008Z,20.58
2022-08-17T04:20:15.857Z,20.61
2022-08-17T04:22:59.351Z,20.63
2022-08-17T04:25:28.333Z,20.70
2022-08-17T04:27:58.002Z,20.69
2022-08-17T04:30:27.018Z,20.76
2022-08-17T04:33:05.849Z,20.78
2022-08-17T04:35:43.164Z,20.78
2022-08-17T04:38:15.262Z,20.87
2022-08-17T04:41:04.776Z,20.84
2022-08-17T04:43:35.533Z,20.87
2022-08-17T04:46:11.069Z,20.90
2022-08-17T04:48:42.641Z,21.02
2022-08-17T04:51:16.770Z,21.07
2022-08-17T04:53:54.197Z,21.15
2022-08-17T04:56:28.216Z,21.16
2022-08-17T04:58:59.794Z,21.11
2022-08-17T05:01:33.081Z,21.09
2022-08-17T05:04:33.802Z,21.01
2022-08-17T05:06:57.874Z,20.99
2022-08-17T05:09:25.722Z,21.06
2022-08-17T05:11:56.260Z,21.03
2022-08-17T05:14:33.537Z,21.09
2022-08-17T05:17:07.176Z,21.11
2022-08-17T05:19:39.353Z,21.06
2022-08-17T05:22:09.341Z,21.10
2022-08-17T05:24:42.489Z,21.19
2022-08-17T05:27:18.904Z,21.24
2022-08-17T05:29:48.475Z,21.31
2022-08-17T05:32:39.624Z,21.30
2022-08-17T05:35:08.801Z,21.18
2022-08-17T05:37:40.958Z,21.27
2022-08-17T05:40:09.954Z,21.04
2022-08-17T05:42:37.801Z,20.95
2022-08-17T05:45:12.493Z,21.04
2022-08-17T05:47:41.279Z,20.90
2022-08-17T05:50:10.502Z,21.01
2022-08-17T05:52:56.435Z,21.12
2022-08-17T05:55:35.942Z,21.38
2022-08-17T05:58:20.461Z,21.76
2022-08-17T06:01:03.411Z,21.88
2022-08-17T06:03:46.009Z,22.03
2022-08-17T06:06:31.351Z,22.05
2022-08-17T06:09:13.405Z,22.42
2022-08-17T06:11:48.150Z,22.81
2022-08-17T06:14:46.301Z,22.93
2022-08-17T06:17:20.706Z,23.28
2022-08-17T06:19:55.066Z,23.48
2022-08-17T06:22:29.149Z,23.59
2022-08-17T06:25:03.455Z,23.73
2022-08-17T06:27:37.908Z,23.69
2022-08-17T06:30:09.998Z,23.74
2022-08-17T06:32:46.510Z,23.68
2022-08-17T06:35:18.876Z,23.70
2022-08-17T06:38:05.919Z,23.82
2022-08-17T06:40:57.273Z,23.90
2022-08-17T06:43:46.228Z,23.88
2022-08-17T06:46:23.010Z,24.01
2022-08-17T06:49:09.944Z,23.95
2022-08-17T06:51:41.472Z,23.46
2022-08-17T06:54:15.555Z,23.13
2022-08-17T06:56:53.089Z,23.09
2022-08-17T06:59:54.501Z,23.64
2022-08-17T07:02:29.120Z,24.44
2022-08-17T07:05:20.072Z,25.01
2022-08-17T07:08:04.269Z,25.02
2022-08-17T07:10:39.176Z,25.04
2022-08-17T07:13:35.095Z,24.26
2022-08-17T07:16:16.639Z,24.11
2022-08-17T07:18:45.143Z,24.41
2022-08-17T07:21:29.015Z,24.88
2022-08-17T07:24:12.096Z,25.00
2022-08-17T07:27:10.094Z,24.87
2022-08-17T07:29:44.019Z,25.27
2022-08-17T07:32:20.381Z,25.38
2022-08-17T07:35:21.077Z,25.84
2022-08-17T07:38:25.310Z,26.13
2022-08-17T07:41:03.747Z,26.34
2022-08-17T07:43:38.364Z,25.84
2022-08-17T07:46:33.319Z,25.59
2022-08-17T07:49:37.032Z,25.65
2022-08-17T07:52:24.111Z,25.63
2022-08-17T07:54:59.751Z,25.81
2022-08-17T07:57:32.429Z,26.33
2022-08-17T08:00:31.766Z,26.53
2022-08-17T08:03:06.261Z,26.53
2022-08-17T08:05:52.282Z,26.80
2022-08-17T08:08:26.148Z,26.77
2022-08-17T08:11:03.573Z,26.79
2022-08-17T08:13:33.290Z,27.09
2022-08-17T08:16:26.084Z,27.32
2022-08-17T08:18:57.941Z,27.54
2022-08-17T08:21:39.590Z,27.78
2022-08-17T08:24:30.027Z,27.65
2022-08-17T08:27:12.534Z,27.28
2022-08-17T08:29:52.740Z,27.92
2022-08-17T08:32:28.693Z,28.33
2022-08-17T08:35:04.056Z,28.56
2022-08-17T08:37:44.303Z,28.47
2022-08-17T08:40:31.520Z,28.57
2022-08-17T08:43:13.533Z,28.08
2022-08-17T08:45:50.931Z,28.00
2022-08-17T08:48:56.396Z,28.15
2022-08-17T08:51:27.867Z,28.52
2022-08-17T08:54:05.309Z,28.17
2022-08-17T08:56:38.298Z,27.33
2022-08-17T08:59:19.462Z,27.57
2022-08-17T09:02:02.181Z,27.70
2022-08-17T09:05:12.978Z,27.90
2022-08-17T09:07:48.058Z,27.18
2022-08-17T09:10:26.614Z,26.97
2022-08-17T09:13:09.939Z,27.08
2022-08-17T09:15:45.549Z,27.72
2022-08-17T09:19:03.100Z,28.41
2022-08-17T09:21:11.474Z,28.86
2022-08-17T09:23:44.868Z,28.03
2022-08-17T09:26:22.153Z,27.77
2022-08-17T09:28:52.902Z,28.48
2022-08-17T09:31:33.144Z,28.63
2022-08-17T09:34:04.567Z,28.30
2022-08-17T09:36:39.322Z,28.79
2022-08-17T09:39:12.057Z,29.20
2022-08-17T09:41:49.582Z,28.85
2022-08-17T09:44:27.336Z,29.08
2022-08-17T09:47:06.498Z,29.46
2022-08-17T09:49:39.323Z,29.04
2022-08-17T09:52:16.518Z,27.90
2022-08-17T09:54:47.450Z,26.93
2022-08-17T09:57:31.020Z,27.32
2022-08-17T10:00:17.042Z,27.83
2022-08-17T10:03:11.921Z,28.51
2022-08-17T10:05:46.373Z,29.20
2022-08-17T10:08:25.740Z,29.45
2022-08-17T10:11:06.959Z,29.23
2022-08-17T10:13:52.792Z,28.94
2022-08-17T10:16:30.539Z,28.30
2022-08-17T10:19:10.674Z,28.27
2022-08-17T10:22:00.787Z,28.69
2022-08-17T10:25:21.282Z,29.25
2022-08-17T10:27:48.985Z,28.84
2022-08-17T10:30:21.726Z,29.07
2022-08-17T10:32:55.377Z,29.27
2022-08-17T10:35:34.193Z,28.91
2022-08-17T10:38:34.151Z,29.06
2022-08-17T10:41:08.206Z,29.06
2022-08-17T10:44:37.398Z,29.17
2022-08-17T10:46:48.506Z,28.56
2022-08-17T10:49:26.831Z,29.00
2022-08-17T10:51:57.886Z,28.48
2022-08-17T10:54:58.550Z,28.52
2022-08-17T10:57:42.177Z,28.64
2022-08-17T11:00:15.508Z,27.88
2022-08-17T11:02:52.066Z,27.60
2022-08-17T11:05:44.384Z,28.06
2022-08-17T11:08:44.873Z,28.48
2022-08-17T11:11:26.705Z,28.48
2022-08-17T11:14:15.936Z,28.45
2022-08-17T11:17:01.074Z,28.55
2022-08-17T11:19:56.294Z,28.80
2022-08-17T11:22:46.190Z,29.21
2022-08-17T11:25:20.241Z,29.08
2022-08-17T11:27:53.837Z,29.29
2022-08-17T11:30:50.481Z,28.98
2022-08-17T11:33:53.514Z,29.14
2022-08-17T11:37:02.565Z,29.18
2022-08-17T11:39:54.459Z,30.09
2022-08-17T11:42:38.779Z,30.34
2022-08-17T11:45:32.181Z,29.42
2022-08-17T11:48:33.686Z,28.67
2022-08-17T11:51:42.036Z,28.18
2022-08-17T11:54:32.156Z,28.17
2022-08-17T11:57:52.351Z,28.57
2022-08-17T12:00:56.471Z,28.13
2022-08-17T12:03:53.953Z,27.93
2022-08-17T12:06:32.189Z,28.31
2022-08-17T12:09:07.521Z,28.71
2022-08-17T12:11:58.731Z,29.14
2022-08-17T12:15:07.911Z,29.41
2022-08-17T12:17:52.275Z,29.11
2022-08-17T12:20:24.103Z,29.41
2022-08-17T12:23:04.585Z,29.82
2022-08-17T12:25:39.095Z,29.35
2022-08-17T12:28:29.928Z,29.36
2022-08-17T12:31:02.455Z,29.25
2022-08-17T12:33:39.015Z,28.34
2022-08-17T12:36:10.196Z,28.29
2022-08-17T12:38:39.245Z,28.33
2022-08-17T12:41:25.553Z,28.73
2022-08-17T12:44:01.720Z,29.13
2022-08-17T12:46:33.688Z,29.18
2022-08-17T12:49:25.627Z,29.57
2022-08-17T12:52:18.471Z,29.79
2022-08-17T12:54:56.223Z,29.83
2022-08-17T12:57:28.402Z,29.84
2022-08-17T13:00:02.248Z,29.60
2022-08-17T13:02:38.781Z,28.99
2022-08-17T13:05:21.442Z,28.50
2022-08-17T13:07:52.691Z,28.73
2022-08-17T13:10:32.137Z,29.30
2022-08-17T13:13:04.982Z,29.95
2022-08-17T13:15:44.374Z,30.21
2022-08-17T13:18:39.293Z,30.25
2022-08-17T13:21:27.799Z,30.34
2022-08-17T13:23:59.018Z,30.49
2022-08-17T13:26:34.373Z,30.06
2022-08-17T13:29:05.876Z,29.72
2022-08-17T13:31:52.012Z,29.81
2022-08-17T13:35:08.961Z,30.14
2022-08-17T13:37:33.485Z,30.04
2022-08-17T13:40:08.076Z,29.44
2022-08-17T13:42:52.830Z,29.49
2022-08-17T13:45:39.662Z,29.76
2022-08-17T13:48:13.690Z,30.06
2022-08-17T13:50:46.919Z,30.11
2022-08-17T13:53:23.288Z,30.09
2022-08-17T13:55:57.237Z,30.17
2022-08-17T13:58:30.405Z,30.23
2022-08-17T14:00:58.567Z,30.18
2022-08-17T14:03:26.494Z,30.04
2022-08-17T14:05:54.558Z,29.94
2022-08-17T14:08:24.053Z,29.45
2022-08-17T14:10:59.335Z,29.12
2022-08-17T14:13:28.739Z,28.96
2022-08-17T14:15:56.869Z,28.70
2022-08-17T14:18:34.277Z,28.57
2022-08-17T14:21:15.118Z,28.00
2022-08-17T14:23:54.345Z,27.96
2022-08-17T14:26:24.471Z,27.93
2022-08-17T14:28:56.462Z,27.67
2022-08-17T14:31:25.315Z,27.68
2022-08-17T14:33:53.729Z,27.48
2022-08-17T14:36:21.628Z,27.49
2022-08-17T14:38:51.024Z,27.47
2022-08-17T14:41:22.279Z,27.46
2022-08-17T14:43:53.973Z,27.39
2022-08-17T14:46:23.649Z,27.44
2022-08-17T14:48:57.213Z,27.50
2022-08-17T14:51:29.429Z,27.64
2022-08-17T14:53:58.847Z,27.87
2022-08-17T14:56:27.371Z,27.85
2022-08-17T14:58:59.926Z,27.78
2022-08-17T15:01:29.966Z,27.99
2022-08-17T15:03:57.789Z,28.08
2022-08-17T15:06:27.839Z,27.97
2022-08-17T15:08:59.146Z,27.97
2022-08-17T15:11:27.011Z,27.91
2022-08-17T15:13:57.179Z,27.81
2022-08-17T15:16:27.145Z,27.83
2022-08-17T15:18:54.766Z,27.90
2022-08-17T15:21:23.287Z,27.76
2022-08-17T15:24:15.421Z,27.54
2022-08-17T15:26:45.179Z,27.42
2022-08-17T15:29:12.975Z,27.29
2022-08-17T15:31:43.001Z,27.14
2022-08-17T15:34:12.824Z,27.04
2022-08-17T15:36:49.164Z,26.93
2022-08-17T15:39:20.683Z,26.91
2022-08-17T15:41:58.597Z,26.92
2022-08-17T15:44:32.756Z,26.96
2022-08-17T15:47:03.016Z,26.83
2022-08-17T15:49:35.671Z,26.85
2022-08-17T15:52:16.899Z,27.02
2022-08-17T15:54:50.742Z,27.01
2022-08-17T15:57:19.090Z,26.94
2022-08-17T15:59:53.988Z,26.95
2022-08-17T16:03:13.944Z,26.96
2022-08-17T16:05:21.947Z,26.94
2022-08-17T16:07:55.118Z,26.81
2022-08-17T16:10:34.575Z,26.77
2022-08-17T16:13:05.239Z,26.81
2022-08-17T16:15:45.254Z,26.62
2022-08-17T16:18:19.191Z,26.55
2022-08-17T16:20:49.288Z,26.43
2022-08-17T16:23:20.182Z,26.23
2022-08-17T16:25:53.617Z,26.18
2022-08-17T16:28:36.286Z,26.16
2022-08-17T16:31:08.073Z,26.01
2022-08-17T16:33:37.415Z,25.89
2022-08-17T16:36:05.623Z,25.87
2022-08-17T16:38:35.752Z,25.83
2022-08-17T16:41:05.719Z,25.81
2022-08-17T16:43:34.024Z,25.79
2022-08-17T16:46:05.886Z,25.68
2022-08-17T16:48:33.733Z,25.62
2022-08-17T16:51:04.325Z,25.57
2022-08-17T16:53:39.147Z,25.51
2022-08-17T16:56:08.409Z,25.39
2022-08-17T16:58:37.660Z,25.43
2022-08-17T17:01:12.145Z,25.38
2022-08-17T17:03:43.886Z,25.39
2022-08-17T17:06:19.461Z,25.35
2022-08-17T17:08:53.109Z,25.34
2022-08-17T17:11:35.949Z,25.16
2022-08-17T17:14:07.140Z,25.01
2022-08-17T17:16:45.828Z,24.96
2022-08-17T17:19:34.680Z,24.94
2022-08-17T17:22:13.039Z,24.91
2022-08-17T17:24:52.702Z,24.66
2022-08-17T17:27:33.074Z,24.69
2022-08-17T17:30:08.948Z,24.67
2022-08-17T17:32:40.844Z,24.61
2022-08-17T17:35:12.877Z,24.65
2022-08-17T17:37:45.733Z,24.73
2022-08-17T17:40:19.100Z,24.50
2022-08-17T17:42:49.826Z,24.59
2022-08-17T17:45:23.952Z,24.40
2022-08-17T17:47:52.368Z,24.49
2022-08-17T17:50:27.050Z,24.52
2022-08-17T17:53:02.750Z,24.16
2022-08-17T17:55:48.851Z,24.11
2022-08-17T17:58:35.722Z,23.90
2022-08-17T18:01:20.335Z,23.81
2022-08-17T18:03:59.155Z,23.89
2022-08-17T18:06:39.767Z,23.71
2022-08-17T18:09:23.911Z,23.44
2022-08-17T18:12:09.215Z,23.39
2022-08-17T18:14:52.823Z,23.42
2022-08-17T18:17:20.631Z,23.21
2022-08-17T18:19:50.787Z,23.05
2022-08-17T18:22:23.601Z,23.10
2022-08-17T18:24:55.914Z,22.99
2022-08-17T18:27:28.534Z,22.86
2022-08-17T18:29:59.548Z,22.92
2022-08-17T18:32:39.017Z,22.75
2022-08-17T18:35:32.584Z,22.70
2022-08-17T18:38:25.149Z,22.70
2022-08-17T18:41:03.872Z,22.58
2022-08-17T18:43:52.787Z,22.36
2022-08-17T18:46:30.155Z,22.43
2022-08-17T18:49:03.503Z,22.29
2022-08-17T18:51:40.953Z,22.05
2022-08-17T18:54:21.498Z,21.95
2022-08-17T18:56:54.902Z,21.94
2022-08-17T18:59:30.124Z,21.85
2022-08-17T19:05:14.520Z,21.69
2022-08-17T19:07:46.731Z,21.71
2022-08-17T19:10:27.183Z,21.66
2022-08-17T19:13:12.406Z,21.59
2022-08-17T19:15:46.979Z,21.50
2022-08-17T19:18:41.640Z,21.47
2022-08-17T19:21:16.564Z,21.48
2022-08-17T19:23:53.800Z,21.23
2022-08-17T19:26:53.853Z,21.02
2022-08-17T19:29:25.760Z,21.21
2022-08-17T19:31:55.400Z,21.14
2022-08-17T19:34:30.167Z,20.98
2022-08-17T19:37:09.051Z,20.92
2022-08-17T19:39:47.853Z,20.74
2022-08-17T19:42:36.102Z,20.83
2022-08-17T19:45:14.107Z,21.00
2022-08-17T19:47:55.125Z,20.86
2022-08-17T19:50:38.427Z,20.94
2022-08-17T19:53:18.688Z,20.76
2022-08-17T19:55:56.721Z,20.52
2022-08-17T19:58:37.534Z,20.37
2022-08-17T20:01:08.792Z,20.25
2022-08-17T20:03:53.283Z,20.49
2022-08-17T20:06:24.020Z,20.53
2022-08-17T20:08:59.959Z,20.46
2022-08-17T20:11:35.311Z,20.03
2022-08-17T20:14:11.414Z,19.81
2022-08-17T20:16:39.295Z,19.92
2022-08-17T20:19:15.728Z,19.86
2022-08-17T20:21:53.784Z,19.74
2022-08-17T20:24:31.706Z,19.87
2022-08-17T20:27:13.693Z,19.85
2022-08-17T20:30:05.858Z,19.71
2022-08-17T20:32:50.177Z,19.57
2022-08-17T20:35:28.805Z,19.45
2022-08-17T20:38:03.990Z,19.57
2022-08-17T20:40:40.422Z,19.76
2022-08-17T20:43:49.054Z,19.78
2022-08-17T20:46:29.520Z,19.68
2022-08-17T20:49:01.075Z,19.60
2022-08-17T20:51:35.087Z,19.49
2022-08-17T20:54:36.647Z,19.45
2022-08-17T20:57:06.094Z,19.43
2022-08-17T21:00:01.275Z,19.66
2022-08-17T21:02:30.096Z,19.91
2022-08-17T21:05:15.909Z,19.58
2022-08-17T21:07:56.641Z,19.35
2022-08-17T21:10:38.784Z,19.27
2022-08-17T21:13:44.261Z,19.17
2022-08-17T21:16:40.186Z,19.21
2022-08-17T21:19:31.244Z,19.27
2022-08-17T21:22:13.452Z,19.31
2022-08-17T21:24:54.199Z,19.18
2022-08-17T21:27:35.758Z,19.17
2022-08-17T21:30:24.923Z,19.27
2022-08-17T21:33:20.258Z,19.09
2022-08-17T21:35:58.684Z,18.94
2022-08-17T21:38:35.524Z,18.91
2022-08-17T21:41:08.151Z,18.92
2022-08-17T21:43:38.011Z,18.80
2022-08-17T21:46:15.416Z,18.79
2022-08-17T21:48:45.760Z,18.72
2022-08-17T21:51:23.465Z,18.70
2022-08-17T21:53:53.565Z,18.82
2022-08-17T21:56:27.874Z,18.66
2022-08-17T21:59:00.765Z,18.45
2022-08-17T22:01:37.280Z,18.34
2022-08-17T22:04:19.016Z,18.42
2022-08-17T22:06:57.263Z,18.35
2022-08-17T22:09:28.482Z,18.47
2022-08-17T22:12:04.188Z,18.52
2022-08-17T22:14:51.470Z,18.38
2022-08-17T22:17:27.881Z,18.38
2022-08-17T22:19:59.191Z,18.26
2022-08-17T22:22:37.066Z,18.09
2022-08-17T22:25:07.239Z,18.03
2022-08-17T22:27:56.113Z,18.03
2022-08-17T22:30:34.865Z,18.03
2022-08-17T22:33:38.118Z,18.11
2022-08-17T22:36:12.062Z,18.13
2022-08-17T22:38:43.851Z,18.43
2022-08-17T22:41:32.052Z,18.30
2022-08-17T22:44:09.336Z,18.19
2022-08-17T22:46:42.501Z,17.97
2022-08-17T22:49:14.001Z,17.86
2022-08-17T22:51:41.834Z,17.81
2022-08-17T22:54:39.079Z,17.80
2022-08-17T22:57:32.149Z,17.78
2022-08-17T23:00:05.517Z,17.91
2022-08-17T23:02:35.477Z,17.89
2022-08-17T23:05:27.363Z,17.79
2022-08-17T23:07:55.188Z,17.97
2022-08-17T23:10:23.037Z,17.96
2022-08-17T23:12:55.161Z,17.77
2022-08-17T23:15:23.423Z,17.64
2022-08-17T23:17:51.576Z,17.68
2022-08-17T23:20:24.973Z,17.59
2022-08-17T23:22:53.179Z,17.51
2022-08-17T23:25:31.810Z,17.36
2022-08-17T23:28:02.359Z,17.38
2022-08-17T23:30:36.600Z,17.35
2022-08-17T23:33:08.482Z,17.48
2022-08-17T23:35:41.393Z,17.39
2022-08-17T23:38:10.193Z,17.30
2022-08-17T23:40:39.717Z,17.31
2022-08-17T23:43:24.705Z,17.29
2022-08-17T23:45:57.540Z,17.15
2022-08-17T23:48:35.715Z,17.15
2022-08-17T23:51:09.102Z,17.15
2022-08-17T23:53:46.189Z,16.99
2022-08-17T23:56:14.436Z,16.96
2022-08-17T23:58:44.795Z,17.00
